Time;durP1;ratioP1;P1;durP2;ratioP2;P2;SDS_P1;SDS_P2;PMS_P1;PMS_P2;Temp;Humidity;BMP_temperature;BMP_pressure;BME280_temperature;BME280_humidity;BME280_pressure;Samples;Min_cycle;Max_cycle;Signal;HPM_P1;HPM_P2
2021/07/14 00:02:23;;;;;;;17.27;13.82;;;24.20;94.90;;;;;;5055736;28;20511;-70
2021/07/14 00:05:10;;;;;;;14.88;12.68;;;24.10;95.10;;;;;;5070253;28;20037;-70
2021/07/14 00:07:56;;;;;;;16.23;13.30;;;24.10;95.30;;;;;;5062933;28;20112;-70
2021/07/14 00:10:42;;;;;;;15.13;12.30;;;24.00;95.30;;;;;;5049144;28;20021;-70
2021/07/14 00:13:34;;;;;;;14.45;12.88;;;24.00;95.50;;;;;;5062364;28;20032;-71
2021/07/14 00:22:30;;;;;;;15.18;12.80;;;23.80;95.50;;;;;;5055818;28;20776;-71
2021/07/14 00:25:16;;;;;;;16.20;12.80;;;23.80;95.50;;;;;;5070050;28;20044;-71
2021/07/14 00:28:02;;;;;;;14.35;12.73;;;23.70;95.60;;;;;;5068781;28;20029;-71
2021/07/14 00:30:56;;;;;;;16.23;12.80;;;23.70;95.70;;;;;;5074125;28;20048;-70
2021/07/14 00:33:43;;;;;;;14.85;12.88;;;23.70;95.70;;;;;;5070830;28;20041;-70
2021/07/14 00:36:30;;;;;;;13.02;11.73;;;23.60;95.80;;;;;;5059076;28;20078;-70
2021/07/14 00:39:16;;;;;;;17.27;13.25;;;23.60;95.90;;;;;;5066122;28;20032;-70
2021/07/14 00:42:02;;;;;;;14.10;11.93;;;23.60;96.10;;;;;;5053511;28;20040;-70
2021/07/14 00:44:48;;;;;;;16.90;12.40;;;23.60;96.00;;;;;;5053291;28;20033;-70
2021/07/14 00:47:36;;;;;;;15.60;13.23;;;23.60;96.20;;;;;;5055180;28;20090;-70
2021/07/14 00:50:22;;;;;;;14.52;12.90;;;23.60;96.40;;;;;;5053520;28;20511;-70
2021/07/14 00:53:08;;;;;;;16.85;13.60;;;23.60;96.50;;;;;;5062039;28;20055;-70
2021/07/14 00:55:54;;;;;;;15.50;13.75;;;23.50;96.50;;;;;;5073781;28;20043;-70
2021/07/14 00:58:40;;;;;;;15.82;13.68;;;23.50;96.50;;;;;;5059732;28;20485;-70
2021/07/14 01:01:27;;;;;;;15.48;12.40;;;23.50;96.50;;;;;;5054036;28;20115;-70
2021/07/14 01:04:17;;;;;;;15.35;12.55;;;23.40;96.70;;;;;;5065589;28;20067;-71
2021/07/14 01:07:10;;;;;;;17.80;14.10;;;23.40;96.80;;;;;;5066902;28;20159;-72
2021/07/14 01:10:16;;;;;;;18.30;13.50;;;23.40;96.80;;;;;;5060114;28;20039;-72
2021/07/14 01:13:26;;;;;;;16.48;14.07;;;23.40;96.80;;;;;;5071279;28;20101;-72
2021/07/14 01:16:15;;;;;;;15.65;13.40;;;23.40;96.90;;;;;;5070679;28;20031;-72
2021/07/14 01:19:14;;;;;;;17.48;14.43;;;23.30;96.90;;;;;;5060131;28;20078;-72
2021/07/14 01:22:07;;;;;;;17.20;14.00;;;23.20;97.10;;;;;;5067271;28;20076;-72
2021/07/14 01:25:08;;;;;;;17.73;14.80;;;23.20;97.20;;;;;;5073461;28;20141;-72
2021/07/14 01:27:58;;;;;;;17.13;14.88;;;23.20;97.20;;;;;;5072254;28;20039;-72
2021/07/14 01:30:43;;;;;;;17.48;15.52;;;23.20;97.30;;;;;;5071595;28;20027;-72
2021/07/14 01:33:31;;;;;;;19.83;15.00;;;23.20;97.40;;;;;;5053386;28;20121;-72
2021/07/14 01:36:19;;;;;;;18.73;15.40;;;23.10;97.40;;;;;;5057759;28;20529;-72
2021/07/14 01:39:05;;;;;;;18.67;15.65;;;23.10;97.50;;;;;;5073099;28;20126;-71
2021/07/14 01:41:50;;;;;;;17.67;15.57;;;23.00;97.60;;;;;;5062686;28;20524;-71
2021/07/14 01:44:36;;;;;;;22.63;16.23;;;23.00;97.60;;;;;;5053447;28;20090;-71
2021/07/14 01:47:22;;;;;;;19.90;15.55;;;23.00;97.80;;;;;;5057026;28;20039;-71
2021/07/14 01:50:08;;;;;;;18.95;15.85;;;23.00;98.00;;;;;;5037971;28;20024;-71
2021/07/14 01:52:53;;;;;;;19.67;16.17;;;23.00;98.00;;;;;;5071120;28;20446;-72
2021/07/14 01:55:40;;;;;;;18.60;16.30;;;23.00;98.10;;;;;;5072003;28;20038;-71
2021/07/14 01:58:27;;;;;;;17.65;15.77;;;22.90;98.20;;;;;;5052908;28;20499;-71
2021/07/14 02:01:17;;;;;;;15.52;13.65;;;22.90;98.20;;;;;;5057341;28;20040;-71
2021/07/14 02:07:08;;;;;;;16.92;15.13;;;22.90;98.20;;;;;;5064095;28;20404;-71
2021/07/14 02:09:55;;;;;;;17.33;15.00;;;22.80;98.20;;;;;;5072508;28;20120;-71
2021/07/14 02:12:43;;;;;;;17.30;15.40;;;22.80;98.20;;;;;;5071731;28;20089;-71
2021/07/14 02:15:31;;;;;;;19.65;15.90;;;22.80;98.40;;;;;;5071765;28;20101;-71
2021/07/14 02:18:16;;;;;;;18.45;16.10;;;22.80;98.30;;;;;;5063142;28;20031;-71
2021/07/14 02:21:00;;;;;;;18.30;14.88;;;22.80;98.40;;;;;;5070747;28;20043;-71
2021/07/14 02:23:44;;;;;;;17.65;15.52;;;22.70;98.40;;;;;;5072367;28;20056;-72
2021/07/14 02:26:32;;;;;;;18.88;16.60;;;22.70;98.50;;;;;;5065556;28;20047;-72
2021/07/14 02:29:16;;;;;;;17.92;15.40;;;22.70;98.60;;;;;;5052525;28;20074;-72
2021/07/14 02:32:00;;;;;;;18.93;14.93;;;22.70;98.60;;;;;;5062809;28;20082;-72
2021/07/14 02:34:47;;;;;;;18.70;16.33;;;22.60;98.60;;;;;;5071736;28;20393;-71
2021/07/14 02:37:40;;;;;;;19.17;16.50;;;22.60;98.70;;;;;;5056428;28;20500;-72
2021/07/14 02:40:30;;;;;;;19.00;16.95;;;22.60;98.80;;;;;;5052234;28;20035;-72
2021/07/14 02:43:16;;;;;;;18.90;15.50;;;22.60;98.80;;;;;;5068297;28;20081;-72
2021/07/14 02:46:05;;;;;;;17.20;15.35;;;22.60;98.80;;;;;;5071281;28;20044;-71
2021/07/14 02:48:52;;;;;;;19.50;15.48;;;22.50;99.10;;;;;;5071938;28;20391;-71
2021/07/14 02:51:38;;;;;;;19.38;15.07;;;22.50;98.90;;;;;;5064185;28;20086;-71
2021/07/14 02:54:26;;;;;;;19.73;15.55;;;22.50;98.90;;;;;;5051895;28;20055;-71
2021/07/14 02:57:13;;;;;;;17.25;15.32;;;22.50;99.00;;;;;;5063738;28;20487;-72
2021/07/14 03:00:00;;;;;;;25.85;17.45;;;22.50;99.00;;;;;;5071670;28;20027;-72
2021/07/14 03:02:46;;;;;;;21.10;16.23;;;22.50;99.10;;;;;;5070687;28;20039;-73
2021/07/14 03:05:31;;;;;;;20.23;15.75;;;22.50;99.10;;;;;;5071849;28;20044;-71
2021/07/14 03:08:15;;;;;;;21.13;15.48;;;22.50;99.10;;;;;;5071751;28;20085;-72
2021/07/14 03:11:02;;;;;;;22.98;15.40;;;22.50;99.10;;;;;;5066688;28;20403;-72
2021/07/14 03:13:47;;;;;;;19.65;16.40;;;22.40;99.20;;;;;;5071256;28;20038;-71
2021/07/14 03:16:33;;;;;;;22.45;15.60;;;22.40;99.20;;;;;;5066792;28;20337;-71
2021/07/14 03:19:18;;;;;;;19.58;16.05;;;22.40;99.30;;;;;;5056710;28;20031;-72
2021/07/14 03:22:03;;;;;;;20.35;14.90;;;22.40;99.20;;;;;;5070091;28;20031;-71
2021/07/14 03:24:48;;;;;;;23.42;16.17;;;22.40;99.30;;;;;;5070046;28;20055;-71
2021/07/14 03:27:32;;;;;;;20.52;15.18;;;22.40;99.30;;;;;;5055727;28;20128;-71
2021/07/14 03:30:21;;;;;;;20.80;16.50;;;22.40;99.30;;;;;;5050369;28;20116;-71
2021/07/14 03:33:07;;;;;;;22.17;17.15;;;22.30;99.40;;;;;;5070278;28;20033;-71
2021/07/14 03:35:56;;;;;;;21.55;15.93;;;22.30;99.40;;;;;;5068650;28;20049;-71
2021/07/14 03:38:42;;;;;;;21.73;16.45;;;22.30;99.40;;;;;;5048552;28;20040;-70
2021/07/14 03:41:28;;;;;;;20.95;14.88;;;22.30;99.40;;;;;;5065378;28;20533;-70
2021/07/14 03:44:17;;;;;;;20.45;16.23;;;22.30;99.40;;;;;;5070576;28;20029;-70
2021/07/14 03:47:03;;;;;;;22.48;16.52;;;22.30;99.50;;;;;;5060259;28;20040;-70
2021/07/14 03:49:50;;;;;;;19.60;14.45;;;22.30;99.50;;;;;;5049763;28;20370;-70
2021/07/14 03:52:37;;;;;;;18.10;14.48;;;22.30;99.50;;;;;;5067007;28;20540;-70
2021/07/14 03:55:23;;;;;;;19.85;15.05;;;22.30;99.60;;;;;;5070965;28;20033;-70
2021/07/14 03:58:09;;;;;;;22.48;15.45;;;22.30;99.60;;;;;;5067735;28;20036;-70
2021/07/14 04:00:56;;;;;;;20.08;15.07;;;22.30;99.50;;;;;;5067778;28;20368;-70
2021/07/14 04:03:42;;;;;;;21.02;14.65;;;22.30;99.60;;;;;;5050673;28;20110;-70
2021/07/14 04:06:34;;;;;;;20.63;15.32;;;22.30;99.60;;;;;;5059368;28;20025;-69
2021/07/14 04:09:24;;;;;;;21.20;15.20;;;22.30;99.80;;;;;;5073341;28;20094;-71
2021/07/14 04:12:12;;;;;;;16.40;12.85;;;22.30;99.60;;;;;;5073712;28;20112;-72
2021/07/14 04:14:57;;;;;;;16.75;11.55;;;22.30;99.60;;;;;;5073874;28;20064;-71
2021/07/14 04:17:43;;;;;;;16.60;11.82;;;22.30;99.60;;;;;;5078816;28;20049;-72
2021/07/14 04:20:29;;;;;;;15.25;11.45;;;22.40;99.60;;;;;;5081285;28;20048;-72
2021/07/14 04:23:15;;;;;;;16.73;11.65;;;22.40;99.60;;;;;;5059288;28;20032;-72
2021/07/14 04:26:01;;;;;;;15.63;10.13;;;22.40;99.60;;;;;;5065670;28;20029;-72
2021/07/14 04:28:46;;;;;;;15.25;11.60;;;22.40;99.50;;;;;;5083651;28;20021;-71
2021/07/14 04:31:34;;;;;;;15.60;11.60;;;22.40;99.50;;;;;;5081175;28;20449;-71
2021/07/14 04:34:20;;;;;;;14.48;10.82;;;22.40;99.50;;;;;;5080829;28;20033;-72
2021/07/14 04:37:05;;;;;;;16.42;11.27;;;22.40;99.40;;;;;;5047524;28;20029;-71
2021/07/14 04:39:51;;;;;;;13.98;10.65;;;22.40;99.40;;;;;;5053445;28;20043;-71
2021/07/14 04:42:37;;;;;;;16.95;11.68;;;22.40;99.50;;;;;;5058175;28;20515;-71
2021/07/14 04:45:23;;;;;;;15.80;11.35;;;22.40;99.50;;;;;;5054274;28;20283;-71
2021/07/14 04:48:09;;;;;;;17.23;12.52;;;22.40;99.60;;;;;;5053535;28;20111;-72
2021/07/14 04:50:55;;;;;;;21.15;13.50;;;22.40;99.50;;;;;;5054840;28;20025;-72
2021/07/14 04:53:40;;;;;;;19.65;12.57;;;22.40;99.50;;;;;;5058631;28;20035;-72
2021/07/14 04:56:26;;;;;;;24.17;13.98;;;22.50;99.60;;;;;;5071743;28;20489;-72
2021/07/14 04:59:12;;;;;;;21.55;13.15;;;22.50;99.60;;;;;;5073214;28;20062;-72
2021/07/14 05:01:58;;;;;;;19.75;13.48;;;22.50;99.60;;;;;;5072176;28;20057;-72
2021/07/14 05:04:44;;;;;;;20.92;13.43;;;22.50;99.70;;;;;;5073027;28;20017;-72
2021/07/14 05:07:30;;;;;;;19.85;13.50;;;22.60;99.60;;;;;;5057784;28;20512;-71
2021/07/14 05:10:20;;;;;;;22.65;15.27;;;22.60;99.50;;;;;;5056052;28;20028;-71
2021/07/14 05:13:06;;;;;;;22.17;14.25;;;22.60;99.60;;;;;;5072815;28;20111;-69
2021/07/14 05:15:52;;;;;;;22.55;13.70;;;22.70;99.60;;;;;;5068374;28;20131;-70
2021/07/14 05:18:38;;;;;;;20.15;14.65;;;22.70;99.60;;;;;;5069993;28;20020;-72
2021/07/14 05:21:24;;;;;;;22.67;15.52;;;22.80;99.60;;;;;;5069229;28;20097;-73
2021/07/14 05:23:49;;;;;;;22.25;15.20;;;22.80;99.60;;;;;;5054665;28;20052;-70
2021/07/14 05:26:34;;;;;;;23.02;14.30;;;22.90;99.60;;;;;;5060824;28;20124;-73
2021/07/14 05:29:18;;;;;;;22.55;14.70;;;22.90;99.60;;;;;;5073789;28;20090;-71
2021/07/14 05:32:03;;;;;;;21.53;11.30;;;23.00;99.60;;;;;;5057121;28;20503;-60
2021/07/14 05:34:47;;;;;;;19.85;13.57;;;23.20;98.70;;;;;;5062049;28;20382;-73
2021/07/14 05:37:32;;;;;;;18.17;13.15;;;23.40;99.00;;;;;;5066404;28;20416;-75
2021/07/14 05:40:16;;;;;;;17.90;13.20;;;23.50;98.90;;;;;;5072554;28;20040;-75
2021/07/14 05:43:00;;;;;;;16.23;13.02;;;23.50;98.90;;;;;;5053891;28;20095;-75
2021/07/14 05:45:45;;;;;;;18.83;13.75;;;23.50;98.80;;;;;;5058673;28;20039;-73
2021/07/14 05:48:30;;;;;;;18.70;12.57;;;23.50;99.00;;;;;;5053868;28;20039;-72
2021/07/14 05:51:14;;;;;;;24.90;13.48;;;23.60;99.10;;;;;;5061393;28;20074;-74
2021/07/14 05:54:01;;;;;;;17.92;11.90;;;23.70;99.00;;;;;;5073107;28;20055;-75
2021/07/14 05:56:46;;;;;;;15.80;11.73;;;23.80;99.10;;;;;;5065046;28;20040;-74
2021/07/14 05:59:30;;;;;;;18.90;11.93;;;23.90;98.90;;;;;;5072174;28;20112;-76
2021/07/14 06:02:14;;;;;;;18.88;11.23;;;24.00;98.50;;;;;;5065357;28;20075;-76
2021/07/14 06:04:58;;;;;;;16.15;11.90;;;24.00;98.60;;;;;;5067621;28;20043;-75
2021/07/14 06:07:42;;;;;;;15.52;11.30;;;24.00;98.60;;;;;;5063149;28;20191;-75
2021/07/14 06:10:27;;;;;;;15.30;11.27;;;24.10;98.50;;;;;;5060098;28;20099;-74
2021/07/14 06:13:11;;;;;;;;;;;24.20;98.40;;;;;;5066265;28;20388;-78
2021/07/14 06:15:55;;;;;;;17.25;12.07;;;24.20;98.20;;;;;;5060800;28;19954;-73
2021/07/14 06:18:39;;;;;;;16.55;12.63;;;24.20;98.30;;;;;;5072617;28;20067;-74
2021/07/14 06:21:23;;;;;;;17.27;12.70;;;24.20;98.10;;;;;;5065574;28;20023;-74
2021/07/14 06:24:07;;;;;;;16.60;12.95;;;24.20;98.00;;;;;;5066242;28;20048;-73
2021/07/14 06:26:55;;;;;;;16.40;13.20;;;24.20;97.90;;;;;;5061783;28;20149;-74
2021/07/14 06:29:39;;;;;;;14.82;12.05;;;24.20;97.80;;;;;;5064138;28;20040;-73
2021/07/14 06:32:23;;;;;;;17.30;13.35;;;24.20;97.70;;;;;;5062264;28;20082;-73
2021/07/14 06:35:10;;;;;;;17.25;12.88;;;24.20;97.70;;;;;;5071221;28;20124;-74
2021/07/14 06:37:54;;;;;;;16.40;13.48;;;24.20;97.60;;;;;;5071243;28;20039;-74
2021/07/14 06:40:41;;;;;;;14.80;12.63;;;24.20;97.70;;;;;;5061309;28;20044;-74
2021/07/14 06:43:41;;;;;;;17.08;13.32;;;24.20;97.70;;;;;;5062557;28;20089;-74
2021/07/14 06:46:25;;;;;;;19.92;12.77;;;24.10;97.60;;;;;;5071245;28;20032;-74
2021/07/14 06:49:10;;;;;;;;;;;24.10;97.60;;;;;;5065974;28;20397;-74
2021/07/14 06:51:54;;;;;;;18.75;13.38;;;24.10;97.50;;;;;;5061054;28;19915;-74
2021/07/14 06:54:38;;;;;;;16.08;12.88;;;24.10;97.70;;;;;;5068387;28;20051;-74
2021/07/14 06:57:25;;;;;;;15.32;12.90;;;24.00;97.60;;;;;;5062039;28;20029;-72
2021/07/14 07:00:10;;;;;;;15.93;12.95;;;24.10;97.70;;;;;;5068227;28;20105;-73
2021/07/14 07:02:55;;;;;;;15.82;10.18;;;24.10;97.70;;;;;;5053544;28;20056;-71
2021/07/14 07:05:39;;;;;;;14.55;11.38;;;24.20;97.00;;;;;;5060839;28;20035;-72
2021/07/14 07:08:23;;;;;;;13.25;10.52;;;24.40;96.80;;;;;;5055072;28;20769;-71
2021/07/14 07:11:07;;;;;;;15.35;12.60;;;24.50;96.30;;;;;;5057896;28;20499;-71
2021/07/14 07:13:51;;;;;;;12.93;11.55;;;24.60;96.60;;;;;;5066971;28;20043;-73
2021/07/14 07:16:35;;;;;;;12.90;9.68;;;24.60;96.20;;;;;;5038696;28;20040;-73
2021/07/14 07:19:19;;;;;;;12.10;8.40;;;24.70;96.00;;;;;;5055936;28;20538;-72
2021/07/14 07:22:05;;;;;;;13.02;11.02;;;24.70;95.60;;;;;;5067752;28;20127;-73
2021/07/14 07:24:51;;;;;;;13.05;10.18;;;24.70;95.90;;;;;;5065212;28;20083;-73
2021/07/14 07:27:38;;;;;;;13.32;9.70;;;24.70;95.80;;;;;;5055559;28;20610;-74
2021/07/14 07:30:23;;;;;;;13.25;8.90;;;24.70;95.40;;;;;;5053397;28;20489;-73
2021/07/14 07:33:09;;;;;;;15.18;12.05;;;24.80;95.70;;;;;;5067970;28;20056;-73
2021/07/14 07:35:55;;;;;;;12.07;9.20;;;24.90;95.90;;;;;;5060610;28;20045;-74
2021/07/14 07:38:41;;;;;;;15.52;9.65;;;24.90;95.20;;;;;;5054307;28;20074;-72
2021/07/14 07:41:27;;;;;;;12.80;11.38;;;24.90;95.20;;;;;;5063936;28;20032;-72
2021/07/14 07:44:13;;;;;;;12.98;10.52;;;24.90;95.60;;;;;;5057764;28;20021;-66
2021/07/14 07:46:59;;;;;;;11.75;9.55;;;24.90;95.60;;;;;;5051536;28;20032;-66
2021/07/14 07:49:46;;;;;;;12.13;10.93;;;25.00;95.00;;;;;;5061362;28;20033;-66
2021/07/14 07:52:32;;;;;;;14.88;12.63;;;25.00;95.40;;;;;;5066705;28;20484;-66
2021/07/14 07:55:17;;;;;;;15.15;10.48;;;25.10;95.60;;;;;;5065314;28;20065;-66
2021/07/14 07:58:03;;;;;;;14.75;11.50;;;25.20;95.30;;;;;;5066446;28;20056;-67
2021/07/14 08:00:49;;;;;;;12.45;10.85;;;25.30;95.20;;;;;;5059637;28;20094;-67
2021/07/14 08:03:35;;;;;;;16.75;11.02;;;25.30;95.00;;;;;;5058589;28;20021;-67
2021/07/14 08:06:21;;;;;;;12.10;9.57;;;25.30;95.10;;;;;;5055783;28;20135;-66
2021/07/14 08:09:07;;;;;;;11.88;10.35;;;25.30;94.40;;;;;;5065819;28;20036;-67
2021/07/14 08:11:54;;;;;;;15.18;10.13;;;25.30;94.30;;;;;;5056655;28;20024;-67
2021/07/14 08:14:39;;;;;;;12.80;10.82;;;25.30;94.80;;;;;;5066878;28;20037;-67
2021/07/14 08:17:25;;;;;;;13.25;10.95;;;25.40;95.00;;;;;;5061834;28;20035;-68
2021/07/14 08:20:12;;;;;;;11.68;9.45;;;25.50;94.60;;;;;;5062121;28;20029;-66
2021/07/14 08:22:57;;;;;;;11.52;9.68;;;25.70;94.60;;;;;;5054465;28;20020;-67
2021/07/14 08:25:43;;;;;;;11.52;9.80;;;25.70;93.90;;;;;;5058962;28;20504;-68
2021/07/14 08:28:29;;;;;;;13.65;10.93;;;25.70;94.30;;;;;;5064382;28;20032;-67
2021/07/14 08:31:15;;;;;;;13.27;9.13;;;25.70;94.40;;;;;;5053410;28;20024;-67
2021/07/14 08:34:01;;;;;;;11.00;9.18;;;25.70;93.30;;;;;;5065280;28;20033;-66
2021/07/14 08:36:47;;;;;;;10.35;7.88;;;25.60;93.10;;;;;;5063558;28;20087;-66
2021/07/14 08:39:33;;;;;;;10.65;8.30;;;25.40;93.30;;;;;;5061574;28;20373;-67
2021/07/14 08:42:20;;;;;;;10.98;8.60;;;25.40;93.20;;;;;;5054707;28;20489;-66
2021/07/14 08:45:09;;;;;;;12.65;9.40;;;25.30;93.80;;;;;;5050059;28;20025;-66
2021/07/14 08:47:55;;;;;;;12.30;9.38;;;25.30;94.00;;;;;;5057757;28;20123;-67
2021/07/14 08:50:44;;;;;;;9.88;7.97;;;25.50;94.30;;;;;;5067804;28;20500;-67
2021/07/14 08:53:30;;;;;;;9.30;8.40;;;25.50;93.30;;;;;;5058666;28;20044;-67
2021/07/14 08:56:16;;;;;;;9.52;8.63;;;25.30;93.30;;;;;;5071360;28;20025;-67
2021/07/14 08:59:01;;;;;;;12.27;9.73;;;25.30;93.60;;;;;;5072759;28;20029;-67
2021/07/14 09:01:48;;;;;;;10.25;8.30;;;25.10;93.70;;;;;;5071028;28;20067;-67
2021/07/14 09:04:35;;;;;;;12.15;9.90;;;25.10;93.60;;;;;;5072814;28;20078;-67
2021/07/14 09:07:20;;;;;;;12.15;10.93;;;25.10;93.70;;;;;;5071461;28;20024;-67
2021/07/14 09:10:10;;;;;;;10.93;9.50;;;25.30;94.50;;;;;;5070147;28;20029;-68
2021/07/14 09:12:57;;;;;;;16.50;11.57;;;25.40;93.60;;;;;;5056372;28;20430;-68
2021/07/14 09:15:48;;;;;;;10.93;9.70;;;25.50;93.90;;;;;;5073644;28;20041;-68
2021/07/14 09:18:34;;;;;;;11.10;9.25;;;25.60;93.00;;;;;;5073704;28;20024;-68
2021/07/14 09:21:20;;;;;;;12.30;11.10;;;25.70;92.80;;;;;;5071693;28;20037;-67
2021/07/14 09:24:32;;;;;;;13.60;11.93;;;25.80;93.20;;;;;;5067554;28;20040;-67
2021/07/14 09:27:19;;;;;;;13.05;11.68;;;26.00;93.10;;;;;;5066526;28;20032;-67
2021/07/14 09:30:16;;;;;;;13.93;12.43;;;26.10;92.80;;;;;;5073550;28;20136;-67
2021/07/14 09:33:05;;;;;;;13.20;11.57;;;26.10;92.90;;;;;;5072554;28;20047;-68
2021/07/14 09:35:50;;;;;;;12.73;10.85;;;26.20;92.10;;;;;;5055441;28;20047;-68
2021/07/14 09:38:38;;;;;;;11.63;10.48;;;26.20;92.50;;;;;;5061815;28;20112;-68
2021/07/14 09:41:22;;;;;;;13.88;11.48;;;26.20;92.50;;;;;;5057434;28;20037;-68
2021/07/14 09:44:23;;;;;;;10.20;9.13;;;26.30;92.10;;;;;;5070227;28;20036;-68
2021/07/14 09:47:28;;;;;;;10.80;9.60;;;26.30;91.70;;;;;;5056362;28;20036;-67
2021/07/14 09:50:12;;;;;;;14.38;9.77;;;26.30;91.70;;;;;;5051869;28;20024;-68
2021/07/14 09:53:02;;;;;;;14.50;10.20;;;26.20;91.80;;;;;;5063141;28;20554;-67
2021/07/14 09:55:49;;;;;;;11.95;10.18;;;26.30;91.70;;;;;;5066955;28;20110;-67
2021/07/14 09:58:33;;;;;;;10.98;9.70;;;26.30;92.00;;;;;;5068514;28;20036;-67
2021/07/14 10:01:17;;;;;;;12.05;9.30;;;26.30;92.00;;;;;;5062756;28;20201;-67
2021/07/14 10:04:01;;;;;;;10.48;8.98;;;26.30;91.80;;;;;;5056931;28;20055;-67
2021/07/14 10:06:45;;;;;;;;;;;26.30;91.50;;;;;;5048752;28;20044;-67
2021/07/14 10:09:30;;;;;;;9.38;7.95;;;26.30;91.00;;;;;;5067206;28;20346;-67
2021/07/14 10:12:27;;;;;;;10.85;9.75;;;26.30;91.10;;;;;;5067496;28;20086;-68
2021/07/14 10:15:14;;;;;;;10.63;8.70;;;26.20;91.40;;;;;;5059277;28;20047;-67
2021/07/14 10:17:58;;;;;;;9.13;8.23;;;26.10;91.90;;;;;;5066860;28;20055;-67
2021/07/14 10:20:44;;;;;;;9.60;8.27;;;26.00;91.40;;;;;;5063463;28;20048;-68
2021/07/14 10:23:31;;;;;;;10.02;8.40;;;26.00;91.80;;;;;;5068869;28;20048;-70
2021/07/14 10:26:16;;;;;;;11.95;9.20;;;25.90;92.10;;;;;;5066499;28;20059;-68
2021/07/14 10:29:01;;;;;;;;;;;25.90;92.10;;;;;;5069893;28;20067;-68
2021/07/14 10:31:50;;;;;;;11.02;8.35;;;25.90;91.60;;;;;;5066487;28;19934;-68
2021/07/14 10:34:35;;;;;;;13.02;9.05;;;25.90;91.90;;;;;;5056829;28;20512;-68
2021/07/14 10:37:19;;;;;;;;;;;26.00;92.10;;;;;;5061687;28;20106;-68
2021/07/14 10:40:06;;;;;;;10.48;7.60;;;26.10;91.50;;;;;;5067297;28;20276;-69
2021/07/14 10:42:52;;;;;;;10.65;7.07;;;26.10;92.00;;;;;;5059823;28;20128;-69
2021/07/14 10:45:36;;;;;;;10.00;7.78;;;26.20;92.10;;;;;;5063802;28;20036;-68
2021/07/14 10:48:24;;;;;;;9.82;6.53;;;26.30;92.00;;;;;;5062535;28;20036;-68
2021/07/14 10:51:09;;;;;;;10.52;7.78;;;26.30;91.50;;;;;;5066180;28;20106;-68
2021/07/14 10:53:57;;;;;;;8.27;5.20;;;26.40;91.90;;;;;;5056871;28;20040;-68
2021/07/14 10:56:44;;;;;;;9.93;6.40;;;26.30;91.50;;;;;;5059660;28;20095;-68
2021/07/14 10:59:28;;;;;;;11.20;6.22;;;26.30;91.50;;;;;;5061171;28;20031;-68
2021/07/14 11:02:16;;;;;;;6.75;6.00;;;26.40;91.50;;;;;;5065376;28;20130;-69
2021/07/14 11:05:00;;;;;;;8.77;5.95;;;26.50;91.50;;;;;;5062109;28;20395;-68
2021/07/14 11:07:46;;;;;;;8.93;6.15;;;26.50;91.40;;;;;;5062036;28;20047;-69
2021/07/14 11:10:39;;;;;;;8.13;6.20;;;26.60;91.60;;;;;;5056864;28;20086;-69
2021/07/14 11:13:34;;;;;;;10.52;6.07;;;26.50;91.30;;;;;;5066027;28;20031;-70
2021/07/14 11:16:35;;;;;;;10.02;6.05;;;26.60;91.50;;;;;;5069984;28;20531;-69
2021/07/14 11:19:20;;;;;;;6.82;5.32;;;26.60;91.30;;;;;;5058353;28;20589;-69
2021/07/14 11:22:04;;;;;;;5.80;5.03;;;26.60;91.50;;;;;;5055536;28;20112;-69
2021/07/14 11:24:51;;;;;;;;;;;26.60;91.30;;;;;;5066221;28;20050;-69
2021/07/14 11:27:35;;;;;;;7.38;5.20;;;26.60;91.20;;;;;;5060235;28;19947;-69
2021/07/14 11:30:35;;;;;;;6.95;6.05;;;26.60;90.90;;;;;;5063349;28;20096;-70
2021/07/14 11:33:47;;;;;;;6.78;6.13;;;26.70;91.10;;;;;;5063328;28;20027;-69
2021/07/14 11:36:39;;;;;;;9.32;5.72;;;26.80;90.70;;;;;;5057607;28;20493;-69
2021/07/14 11:39:30;;;;;;;5.60;5.07;;;26.90;90.70;;;;;;5039167;28;20113;-70
2021/07/14 11:42:17;;;;;;;9.63;5.50;;;27.00;90.60;;;;;;5065646;28;20036;-70
2021/07/14 11:45:09;;;;;;;9.57;5.80;;;26.90;90.30;;;;;;5062661;28;20017;-69
2021/07/14 11:48:08;;;;;;;6.72;5.40;;;26.90;90.50;;;;;;5065294;28;20194;-70
2021/07/14 11:51:02;;;;;;;6.88;5.10;;;27.10;90.60;;;;;;5048891;28;20033;-70
2021/07/14 11:53:53;;;;;;;7.70;5.75;;;27.10;90.40;;;;;;5063021;28;20044;-70
2021/07/14 11:56:39;;;;;;;8.25;5.70;;;27.20;90.10;;;;;;5067803;28;20089;-69
2021/07/14 11:59:26;;;;;;;6.32;5.50;;;27.20;90.30;;;;;;5066423;28;20017;-69
2021/07/14 12:02:19;;;;;;;6.68;5.55;;;27.20;90.40;;;;;;5064389;28;20107;-68
2021/07/14 12:05:09;;;;;;;6.38;5.15;;;27.20;90.00;;;;;;5051562;28;20033;-66
2021/07/14 12:08:11;;;;;;;6.68;5.43;;;27.20;89.90;;;;;;5066195;28;20036;-68
2021/07/14 12:10:57;;;;;;;6.85;5.50;;;27.10;89.60;;;;;;5058201;28;20040;-68
2021/07/14 12:13:43;;;;;;;5.57;4.68;;;27.00;90.40;;;;;;5066294;28;20043;-69
2021/07/14 12:16:30;;;;;;;5.10;4.57;;;27.10;90.60;;;;;;5058152;28;20044;-70
2021/07/14 12:19:23;;;;;;;5.50;5.00;;;27.30;90.20;;;;;;5064483;28;20070;-69
2021/07/14 12:22:15;;;;;;;6.68;4.85;;;27.40;90.00;;;;;;5060893;28;20457;-70
2021/07/14 12:25:09;;;;;;;8.82;5.00;;;27.50;88.60;;;;;;5066544;28;20079;-69
2021/07/14 12:27:55;;;;;;;;;;;27.50;88.70;;;;;;5049485;28;20074;-68
2021/07/14 12:30:46;;;;;;;5.80;5.20;;;27.60;88.50;;;;;;5071159;28;19912;-67
2021/07/14 12:33:32;;;;;;;5.00;4.50;;;27.70;88.40;;;;;;5066033;28;20025;-67
2021/07/14 12:36:19;;;;;;;9.18;5.28;;;27.60;88.40;;;;;;5063079;28;20123;-68
2021/07/14 12:39:05;;;;;;;7.40;5.00;;;27.60;89.00;;;;;;5066760;28;20020;-67
2021/07/14 12:41:56;;;;;;;12.15;5.35;;;27.40;87.60;;;;;;5065211;28;20033;-67
2021/07/14 12:44:42;;;;;;;6.70;4.30;;;27.20;88.30;;;;;;5062966;28;20035;-68
2021/07/14 12:47:28;;;;;;;8.27;6.07;;;27.00;86.50;;;;;;5068402;28;20097;-68
2021/07/14 12:50:25;;;;;;;6.05;4.57;;;26.90;88.10;;;;;;5064328;28;20028;-71
2021/07/14 12:53:11;;;;;;;5.30;4.30;;;27.10;87.00;;;;;;5069146;28;20032;-68
2021/07/14 12:55:59;;;;;;;6.72;5.20;;;27.30;87.50;;;;;;5060028;28;20050;-68
2021/07/14 12:58:58;;;;;;;6.68;5.05;;;27.50;87.20;;;;;;5070179;28;20027;-69
2021/07/14 13:01:45;;;;;;;8.82;5.45;;;27.50;85.10;;;;;;5064590;28;20324;-68
2021/07/14 13:04:34;;;;;;;7.55;5.07;;;27.30;84.70;;;;;;5061784;28;20036;-69
2021/07/14 13:07:29;;;;;;;5.60;4.78;;;27.30;85.20;;;;;;5070734;28;20400;-69
2021/07/14 13:10:18;;;;;;;6.45;4.85;;;27.40;85.00;;;;;;5067371;28;20060;-69
2021/07/14 13:13:08;;;;;;;7.43;4.82;;;27.40;83.20;;;;;;5063122;28;20484;-69
2021/07/14 13:15:57;;;;;;;7.38;5.43;;;27.40;84.70;;;;;;5057813;28;20036;-69
2021/07/14 13:18:45;;;;;;;7.50;4.72;;;27.40;83.10;;;;;;5071290;28;20029;-69
2021/07/14 13:21:33;;;;;;;6.03;4.97;;;27.30;82.90;;;;;;5058927;28;20102;-69
2021/07/14 13:24:31;;;;;;;5.70;5.05;;;27.10;84.10;;;;;;5067182;28;20048;-68
2021/07/14 13:27:01;;;;;;;6.05;5.07;;;27.10;83.80;;;;;;5069707;28;20032;-69
2021/07/14 13:29:28;;;;;;;7.13;5.47;;;27.10;85.00;;;;;;5067638;28;20028;-69
2021/07/14 13:32:10;;;;;;;8.43;5.45;;;27.20;85.10;;;;;;5064755;28;20086;-69
2021/07/14 13:34:45;;;;;;;9.18;4.93;;;27.20;84.80;;;;;;5071521;28;20036;-69
2021/07/14 13:37:11;;;;;;;7.95;5.22;;;27.30;85.50;;;;;;5062084;28;20032;-67
2021/07/14 13:39:41;;;;;;;7.05;4.60;;;27.40;85.10;;;;;;5070210;28;20120;-66
2021/07/14 13:42:15;;;;;;;7.13;5.30;;;27.50;82.70;;;;;;5063892;28;20647;-68
2021/07/14 13:44:42;;;;;;;6.32;5.00;;;27.50;84.10;;;;;;5067064;28;20064;-67
2021/07/14 13:47:19;;;;;;;7.47;5.40;;;27.60;83.90;;;;;;5070612;28;20032;-67
2021/07/14 13:49:46;;;;;;;8.90;5.18;;;27.70;83.10;;;;;;5050615;28;20033;-68
2021/07/14 13:52:22;;;;;;;7.00;4.95;;;27.70;81.70;;;;;;5062338;28;20032;-68
2021/07/14 13:54:48;;;;;;;6.82;5.50;;;27.70;80.60;;;;;;5063239;28;20039;-67
2021/07/14 13:57:16;;;;;;;9.38;5.28;;;27.60;82.80;;;;;;5067823;28;20021;-68
2021/07/14 13:59:47;;;;;;;5.35;4.75;;;27.50;82.80;;;;;;5070388;28;20176;-68
2021/07/14 14:02:35;;;;;;;5.05;4.28;;;27.50;84.10;;;;;;5069068;28;20044;-68
2021/07/14 14:05:06;;;;;;;6.00;4.25;;;27.60;82.70;;;;;;5070543;28;20107;-68
2021/07/14 14:07:38;;;;;;;6.38;4.72;;;27.80;81.30;;;;;;5067404;28;20025;-69
2021/07/14 14:10:15;;;;;;;7.13;5.15;;;28.00;83.80;;;;;;5071176;28;20069;-68
2021/07/14 14:12:49;;;;;;;6.45;4.70;;;28.20;81.40;;;;;;5070562;28;20111;-68
2021/07/14 14:15:19;;;;;;;5.38;4.68;;;28.30;80.40;;;;;;5061913;28;20033;-68
2021/07/14 14:17:49;;;;;;;6.00;5.03;;;28.40;80.10;;;;;;5065371;28;20507;-68
2021/07/14 14:20:21;;;;;;;5.63;5.03;;;28.60;81.20;;;;;;5070242;28;20043;-68
2021/07/14 14:22:48;;;;;;;4.65;3.80;;;28.70;80.70;;;;;;5066019;28;20440;-68